Time;durP1;ratioP1;P1;durP2;ratioP2;P2;SDS_P1;SDS_P2;PMS_P1;PMS_P2;Temp;Humidity;BMP_temperature;BMP_pressure;BME280_temperature;BME280_humidity;BME280_pressure;Samples;Min_cycle;Max_cycle;Signal;HPM_P1;HPM_P2
2023/08/14 00:00:32;;;;;;;6.80;4.93;;;20.00;99.90;;;;;;5035741;28;20076;-81
2023/08/14 00:02:58;;;;;;;9.30;5.45;;;19.90;99.90;;;;;;5035728;28;20112;-81
2023/08/14 00:05:23;;;;;;;6.53;4.28;;;19.90;99.90;;;;;;5036984;28;20035;-81
2023/08/14 00:07:49;;;;;;;9.50;5.10;;;19.90;99.90;;;;;;5036041;28;20056;-82
2023/08/14 00:10:15;;;;;;;10.63;4.68;;;19.90;99.90;;;;;;5042553;28;20475;-81
2023/08/14 00:12:42;;;;;;;9.68;5.20;;;19.80;99.90;;;;;;5047698;28;20052;-82
2023/08/14 00:15:08;;;;;;;10.77;6.30;;;19.90;99.90;;;;;;5048598;28;20029;-81
2023/08/14 00:17:34;;;;;;;10.27;6.13;;;19.80;99.90;;;;;;5047882;28;20032;-82
2023/08/14 00:20:00;;;;;;;9.55;6.30;;;19.80;99.90;;;;;;5047483;28;20017;-81
2023/08/14 00:22:26;;;;;;;9.88;5.20;;;19.80;99.90;;;;;;5048848;28;20030;-82
2023/08/14 00:24:52;;;;;;;7.82;5.20;;;19.80;99.90;;;;;;5040345;28;20084;-82
2023/08/14 00:27:18;;;;;;;11.68;5.15;;;19.70;99.90;;;;;;5035285;28;20026;-82
2023/08/14 00:29:45;;;;;;;10.27;4.78;;;19.70;99.90;;;;;;5036198;28;20025;-82
2023/08/14 00:32:11;;;;;;;9.95;4.72;;;19.70;99.90;;;;;;5051367;28;20021;-82
2023/08/14 00:34:37;;;;;;;10.43;4.65;;;19.70;99.90;;;;;;5034350;28;20475;-81
2023/08/14 00:37:03;;;;;;;10.30;4.50;;;19.60;99.90;;;;;;5034834;28;20027;-82
2023/08/14 00:39:29;;;;;;;12.32;4.50;;;19.60;99.90;;;;;;5034340;28;20017;-81
2023/08/14 00:41:54;;;;;;;8.20;4.43;;;19.60;99.90;;;;;;5034621;28;20029;-81
2023/08/14 00:44:20;;;;;;;8.23;4.68;;;19.60;99.90;;;;;;5034711;28;20028;-81
2023/08/14 00:46:46;;;;;;;9.65;5.18;;;19.60;99.90;;;;;;5034438;28;20025;-81
2023/08/14 00:49:12;;;;;;;8.35;4.38;;;19.60;99.90;;;;;;5034611;28;20025;-81
2023/08/14 00:51:38;;;;;;;10.77;4.95;;;19.50;99.90;;;;;;5035184;28;20037;-81
2023/08/14 00:54:04;;;;;;;10.52;5.10;;;19.50;99.90;;;;;;5035648;28;20026;-81
2023/08/14 00:56:31;;;;;;;10.82;4.75;;;19.50;99.90;;;;;;5035786;28;20018;-81
2023/08/14 00:58:57;;;;;;;6.40;4.57;;;19.50;99.90;;;;;;5034628;28;20026;-81
2023/08/14 01:01:23;;;;;;;11.70;6.35;;;19.50;99.90;;;;;;5035771;28;20113;-81
2023/08/14 01:03:51;;;;;;;13.57;6.53;;;19.40;99.90;;;;;;5033783;28;20423;-81
2023/08/14 01:06:17;;;;;;;8.90;5.68;;;19.40;99.90;;;;;;5034174;28;20036;-81
2023/08/14 01:08:44;;;;;;;9.73;5.63;;;19.40;99.90;;;;;;5034424;28;20126;-81
2023/08/14 01:11:25;;;;;;;9.77;5.22;;;19.30;99.90;;;;;;5035060;28;20494;-82
2023/08/14 01:14:03;;;;;;;9.98;5.53;;;19.30;99.90;;;;;;5034720;28;20384;-81
2023/08/14 01:16:38;;;;;;;8.25;5.75;;;19.30;99.90;;;;;;5034285;28;20021;-81
2023/08/14 01:19:09;;;;;;;11.15;5.18;;;19.30;99.90;;;;;;5034410;28;20036;-82
2023/08/14 01:21:47;;;;;;;9.77;4.90;;;19.30;99.90;;;;;;5033921;28;20061;-82
2023/08/14 01:24:43;;;;;;;11.43;5.18;;;19.30;99.90;;;;;;5034993;28;20087;-82
2023/08/14 01:27:09;;;;;;;11.38;4.63;;;19.30;99.90;;;;;;5033842;28;20087;-82
2023/08/14 01:29:35;;;;;;;9.93;4.45;;;19.30;99.90;;;;;;5035173;28;20050;-82
2023/08/14 01:32:01;;;;;;;15.48;5.30;;;19.20;99.90;;;;;;5033482;28;20026;-82
2023/08/14 01:34:27;;;;;;;7.32;4.25;;;19.20;99.90;;;;;;5035345;28;20057;-82
2023/08/14 01:37:01;;;;;;;9.38;4.60;;;19.20;99.90;;;;;;5034013;28;20025;-82
2023/08/14 01:39:35;;;;;;;5.25;4.38;;;19.10;99.90;;;;;;5033859;28;20036;-81
2023/08/14 01:42:32;;;;;;;10.55;4.72;;;19.00;99.90;;;;;;5014405;28;20030;-81
2023/08/14 01:45:05;;;;;;;14.48;5.15;;;18.90;99.90;;;;;;5025676;28;20025;-82
2023/08/14 01:47:34;;;;;;;12.13;5.28;;;18.90;99.90;;;;;;5032752;28;20029;-82
2023/08/14 01:50:01;;;;;;;10.25;5.10;;;18.90;99.90;;;;;;5033441;28;20410;-81
2023/08/14 01:52:27;;;;;;;11.57;5.90;;;18.90;99.90;;;;;;5034029;28;20036;-82
2023/08/14 01:54:53;;;;;;;6.82;4.97;;;18.90;99.90;;;;;;5033077;28;20022;-81
2023/08/14 01:57:18;;;;;;;7.60;5.53;;;18.90;99.90;;;;;;5032957;28;20033;-82
2023/08/14 01:59:46;;;;;;;8.23;5.40;;;18.80;99.90;;;;;;5032797;28;20014;-82
2023/08/14 02:02:13;;;;;;;11.35;4.78;;;18.90;99.90;;;;;;5033059;28;20025;-82
2023/08/14 02:04:39;;;;;;;8.73;4.70;;;18.80;99.90;;;;;;5033130;28;20565;-81
2023/08/14 02:07:05;;;;;;;6.88;5.57;;;18.80;99.90;;;;;;5033325;28;20048;-81
2023/08/14 02:09:32;;;;;;;9.50;5.05;;;18.80;99.90;;;;;;5033277;28;20025;-80
2023/08/14 02:11:59;;;;;;;8.38;4.78;;;18.80;99.90;;;;;;5032704;28;20036;-80
2023/08/14 02:14:25;;;;;;;12.50;5.03;;;18.70;99.90;;;;;;5033318;28;20022;-79
2023/08/14 02:16:50;;;;;;;7.85;5.72;;;18.70;99.90;;;;;;5033496;28;20508;-81
2023/08/14 02:19:16;;;;;;;7.00;5.93;;;18.60;99.90;;;;;;5033593;28;20029;-81
2023/08/14 02:21:42;;;;;;;14.27;6.10;;;18.60;99.90;;;;;;5030461;28;20025;-81
2023/08/14 02:24:08;;;;;;;9.18;5.78;;;18.60;99.90;;;;;;5032790;28;20031;-81
2023/08/14 02:26:34;;;;;;;10.88;5.13;;;18.60;99.90;;;;;;5032123;28;20021;-80
2023/08/14 02:29:00;;;;;;;8.23;5.00;;;18.60;99.90;;;;;;5031484;28;20463;-81
2023/08/14 02:31:26;;;;;;;8.88;5.07;;;18.60;99.90;;;;;;5032670;28;20475;-80
2023/08/14 02:34:01;;;;;;;7.53;5.30;;;18.60;99.90;;;;;;5032512;28;20017;-81
2023/08/14 02:36:27;;;;;;;8.73;4.38;;;18.50;99.90;;;;;;5032850;28;20509;-81
2023/08/14 02:38:53;;;;;;;12.57;5.22;;;18.40;99.90;;;;;;5032402;28;20488;-81
2023/08/14 02:41:19;;;;;;;10.68;5.20;;;18.40;99.90;;;;;;5032729;28;20018;-81
2023/08/14 02:43:45;;;;;;;7.20;5.30;;;18.40;99.90;;;;;;5032613;28;20037;-80
2023/08/14 02:46:11;;;;;;;9.10;5.15;;;18.40;99.90;;;;;;5026751;28;20018;-80
2023/08/14 02:48:37;;;;;;;9.38;5.03;;;18.40;99.90;;;;;;5012477;28;20076;-80
2023/08/14 02:51:03;;;;;;;12.43;4.65;;;18.40;99.90;;;;;;5012840;28;20014;-80
2023/08/14 02:53:28;;;;;;;7.60;4.88;;;18.40;99.90;;;;;;5012875;28;20041;-80
2023/08/14 02:55:54;;;;;;;12.13;5.50;;;18.40;99.90;;;;;;5013156;28;20033;-80
2023/08/14 02:58:20;;;;;;;11.85;6.70;;;18.40;99.90;;;;;;5013196;28;20480;-79
2023/08/14 03:00:46;;;;;;;13.70;6.28;;;18.30;99.90;;;;;;5014707;28;20022;-79
2023/08/14 03:03:13;;;;;;;9.05;5.30;;;18.20;99.90;;;;;;5013175;28;20036;-79
2023/08/14 03:05:39;;;;;;;13.00;5.93;;;18.20;99.90;;;;;;5012469;28;20056;-80
2023/08/14 03:08:05;;;;;;;12.65;5.95;;;18.10;99.90;;;;;;5013239;28;20053;-79
2023/08/14 03:10:31;;;;;;;13.60;6.43;;;17.90;99.90;;;;;;5014407;28;20029;-79
2023/08/14 03:12:57;;;;;;;9.85;5.72;;;18.00;99.90;;;;;;5012559;28;20109;-79
2023/08/14 03:15:23;;;;;;;8.70;6.07;;;18.10;99.90;;;;;;5012834;28;20053;-79
2023/08/14 03:17:49;;;;;;;10.50;5.85;;;18.10;99.90;;;;;;5014128;28;20029;-80
2023/08/14 03:20:15;;;;;;;12.18;6.60;;;18.10;99.90;;;;;;5013457;28;20018;-79
2023/08/14 03:22:41;;;;;;;13.70;6.80;;;18.00;99.90;;;;;;5014326;28;20494;-79
2023/08/14 03:25:07;;;;;;;14.40;7.65;;;17.90;99.90;;;;;;5013972;28;20033;-79
2023/08/14 03:27:33;;;;;;;10.48;6.40;;;17.90;99.90;;;;;;5012291;28;20119;-80
2023/08/14 03:29:59;;;;;;;12.98;6.18;;;17.80;99.90;;;;;;5012835;28;20495;-79
2023/08/14 03:32:25;;;;;;;5.88;5.00;;;17.80;99.90;;;;;;5014586;28;20113;-79
2023/08/14 03:34:51;;;;;;;7.28;5.00;;;17.80;99.90;;;;;;5012694;28;20037;-79
2023/08/14 03:37:17;;;;;;;11.18;4.93;;;17.80;99.90;;;;;;5012937;28;20018;-79
2023/08/14 03:39:43;;;;;;;8.82;4.78;;;17.90;99.90;;;;;;5012495;28;20014;-79
2023/08/14 03:42:09;;;;;;;8.98;5.25;;;17.90;99.90;;;;;;5014669;28;20020;-79
2023/08/14 03:44:34;;;;;;;10.25;5.63;;;17.90;99.90;;;;;;5012929;28;20376;-79
2023/08/14 03:47:00;;;;;;;8.77;5.03;;;17.90;99.90;;;;;;5025443;28;20079;-79
2023/08/14 03:49:26;;;;;;;9.27;5.32;;;17.90;99.90;;;;;;5032413;28;20096;-79
2023/08/14 03:51:52;;;;;;;10.93;5.65;;;17.80;99.90;;;;;;5032141;28;20032;-79
2023/08/14 03:54:18;;;;;;;8.43;5.43;;;17.80;99.90;;;;;;5022701;28;20034;-79
2023/08/14 03:56:43;;;;;;;14.32;7.75;;;17.80;99.90;;;;;;5014424;28;20029;-79
2023/08/14 03:59:09;;;;;;;12.25;7.18;;;17.80;99.90;;;;;;5014329;28;20029;-79
2023/08/14 04:01:36;;;;;;;13.95;7.10;;;17.70;99.90;;;;;;5012906;28;20030;-79
2023/08/14 04:04:03;;;;;;;8.23;5.90;;;17.70;99.90;;;;;;5013861;28;20022;-79
2023/08/14 04:06:29;;;;;;;11.80;5.75;;;17.70;99.90;;;;;;5013188;28;20021;-79
2023/08/14 04:08:54;;;;;;;9.60;5.40;;;17.60;99.90;;;;;;5014482;28;20029;-79
2023/08/14 04:11:21;;;;;;;10.43;5.57;;;17.60;99.90;;;;;;5014942;28;20030;-79
2023/08/14 04:13:47;;;;;;;10.52;5.13;;;17.60;99.90;;;;;;5013216;28;20685;-78
2023/08/14 04:16:13;;;;;;;8.75;4.72;;;17.70;99.90;;;;;;5013322;28;20049;-79
2023/08/14 04:18:38;;;;;;;10.88;5.03;;;17.60;99.90;;;;;;5014427;28;20468;-79
2023/08/14 04:21:05;;;;;;;6.90;4.78;;;17.60;99.90;;;;;;5014606;28;20029;-79
2023/08/14 04:23:30;;;;;;;9.30;5.15;;;17.60;99.90;;;;;;5014201;28;20033;-79
2023/08/14 04:25:56;;;;;;;10.30;6.35;;;17.70;99.90;;;;;;5013765;28;20557;-79
2023/08/14 04:28:22;;;;;;;16.85;6.47;;;17.60;99.90;;;;;;5012926;28;20472;-79
2023/08/14 04:30:49;;;;;;;14.35;6.95;;;17.60;99.90;;;;;;5015914;28;20032;-79
2023/08/14 04:33:16;;;;;;;10.48;7.10;;;17.60;99.90;;;;;;5014073;28;20025;-79
2023/08/14 04:35:42;;;;;;;11.85;6.75;;;17.60;99.90;;;;;;5011947;28;20022;-79
2023/08/14 04:38:08;;;;;;;11.73;6.18;;;17.50;99.90;;;;;;5012398;28;20033;-79
2023/08/14 04:40:33;;;;;;;10.95;6.20;;;17.50;99.90;;;;;;5014682;28;20045;-79
2023/08/14 04:42:59;;;;;;;13.23;6.35;;;17.50;99.90;;;;;;5027380;28;20479;-79
2023/08/14 04:45:25;;;;;;;12.48;6.32;;;17.50;99.90;;;;;;5037027;28;20029;-79
2023/08/14 04:47:51;;;;;;;9.07;6.05;;;17.50;99.90;;;;;;5017412;28;20104;-79
2023/08/14 04:50:17;;;;;;;9.65;6.10;;;17.50;99.90;;;;;;5016953;28;20022;-79
2023/08/14 04:52:43;;;;;;;10.07;5.65;;;17.50;99.90;;;;;;5015309;28;20036;-80
2023/08/14 04:55:08;;;;;;;10.18;5.65;;;17.60;99.90;;;;;;5015335;28;20030;-79
2023/08/14 04:57:34;;;;;;;13.10;5.90;;;17.50;99.90;;;;;;5015843;28;20026;-79
2023/08/14 05:00:00;;;;;;;11.73;5.72;;;17.50;99.90;;;;;;5015685;28;20380;-79
2023/08/14 05:02:29;;;;;;;9.52;5.53;;;17.50;99.90;;;;;;5037995;28;20029;-79
2023/08/14 05:04:54;;;;;;;9.07;5.53;;;17.50;99.90;;;;;;5036500;28;20025;-79
2023/08/14 05:07:22;;;;;;;12.95;5.65;;;17.60;99.90;;;;;;5016012;28;20121;-79
2023/08/14 05:09:50;;;;;;;8.80;5.93;;;17.50;99.90;;;;;;5016996;28;20392;-79
2023/08/14 05:12:16;;;;;;;8.75;6.70;;;17.60;99.90;;;;;;5015288;28;20029;-79
2023/08/14 05:14:42;;;;;;;9.77;5.82;;;17.50;99.90;;;;;;5015456;28;20407;-79
2023/08/14 05:17:08;;;;;;;11.82;6.63;;;17.60;99.90;;;;;;5015231;28;20025;-79
2023/08/14 05:19:33;;;;;;;10.18;6.05;;;17.60;99.90;;;;;;5016925;28;20574;-80
2023/08/14 05:21:59;;;;;;;11.13;5.90;;;17.60;99.90;;;;;;5016929;28;20439;-80
2023/08/14 05:24:25;;;;;;;10.00;5.47;;;17.60;99.90;;;;;;5014924;28;20434;-79
2023/08/14 05:26:51;;;;;;;12.77;5.50;;;17.60;99.90;;;;;;5016510;28;20097;-79
2023/08/14 05:29:17;;;;;;;8.32;5.68;;;17.60;99.90;;;;;;5015269;28;20033;-79
2023/08/14 05:31:42;;;;;;;10.38;6.40;;;17.60;99.90;;;;;;5015962;28;20026;-79
2023/08/14 05:34:08;;;;;;;10.50;6.20;;;17.70;99.90;;;;;;5016261;28;20060;-79
2023/08/14 05:36:34;;;;;;;10.82;7.00;;;17.70;99.90;;;;;;5014890;28;20061;-79
2023/08/14 05:39:00;;;;;;;13.60;7.45;;;17.80;99.90;;;;;;5015941;28;20468;-80
2023/08/14 05:41:26;;;;;;;12.63;8.32;;;17.80;99.90;;;;;;5029867;28;20030;-79
2023/08/14 05:43:51;;;;;;;12.45;7.38;;;17.90;99.90;;;;;;5036176;28;20100;-79
2023/08/14 05:46:19;;;;;;;15.02;8.30;;;18.00;99.90;;;;;;5039654;28;20041;-79
2023/08/14 05:48:45;;;;;;;15.02;9.00;;;18.00;99.90;;;;;;5037935;28;20022;-79
2023/08/14 05:51:10;;;;;;;16.15;7.63;;;18.00;99.90;;;;;;5033864;28;20028;-79
2023/08/14 05:53:36;;;;;;;13.32;6.53;;;18.00;99.90;;;;;;5034051;28;20367;-79
2023/08/14 05:56:02;;;;;;;12.80;7.40;;;18.00;99.90;;;;;;5034570;28;20022;-79
2023/08/14 05:58:27;;;;;;;10.07;7.20;;;18.00;99.90;;;;;;5034096;28;20479;-79
2023/08/14 06:00:53;;;;;;;9.00;6.65;;;18.10;99.90;;;;;;5034250;28;20018;-79
2023/08/14 06:03:19;;;;;;;10.48;7.63;;;18.10;99.90;;;;;;5035438;28;20029;-79
2023/08/14 06:05:45;;;;;;;11.70;8.60;;;18.20;99.90;;;;;;5033302;28;20026;-79
2023/08/14 06:08:10;;;;;;;11.68;8.00;;;18.20;99.90;;;;;;5034435;28;20033;-79
2023/08/14 06:10:38;;;;;;;12.95;6.80;;;18.10;99.90;;;;;;5036430;28;20032;-79
2023/08/14 06:13:04;;;;;;;9.25;7.82;;;18.10;99.90;;;;;;5034248;28;20029;-80
2023/08/14 06:15:29;;;;;;;11.90;8.13;;;18.10;99.90;;;;;;5035909;28;20030;-80
2023/08/14 06:17:59;;;;;;;15.27;8.23;;;18.10;99.90;;;;;;5041996;28;20274;-80
2023/08/14 06:20:24;;;;;;;14.20;9.30;;;18.20;99.90;;;;;;5042922;28;20479;-80
2023/08/14 06:22:50;;;;;;;15.57;7.93;;;18.20;99.90;;;;;;5023406;28;20037;-81
2023/08/14 06:25:16;;;;;;;10.00;7.65;;;18.10;99.90;;;;;;5017386;28;20041;-81
2023/08/14 06:27:42;;;;;;;14.38;8.45;;;18.10;99.90;;;;;;5016095;28;20018;-81
2023/08/14 06:30:10;;;;;;;15.63;8.85;;;18.00;99.90;;;;;;5015737;28;20476;-81
2023/08/14 06:32:37;;;;;;;9.25;7.63;;;17.90;99.90;;;;;;5016289;28;20034;-81
2023/08/14 06:35:04;;;;;;;13.23;8.57;;;17.90;99.90;;;;;;5016289;28;20472;-81
2023/08/14 06:37:30;;;;;;;14.93;7.75;;;17.90;99.90;;;;;;5017164;28;20080;-81
2023/08/14 06:39:56;;;;;;;14.43;7.40;;;18.10;99.90;;;;;;5015781;28;20533;-81
2023/08/14 06:42:22;;;;;;;9.38;7.65;;;18.00;99.90;;;;;;5015896;28;20056;-81
2023/08/14 06:44:48;;;;;;;10.55;7.72;;;18.10;99.90;;;;;;5015860;28;20492;-81
2023/08/14 06:47:13;;;;;;;11.68;6.88;;;18.20;99.90;;;;;;5016020;28;20119;-81
2023/08/14 06:49:39;;;;;;;19.88;8.07;;;18.20;99.90;;;;;;5025602;28;20067;-81
2023/08/14 06:52:05;;;;;;;12.57;9.57;;;18.10;99.90;;;;;;5035488;28;20467;-82
2023/08/14 06:54:31;;;;;;;12.07;8.45;;;18.20;99.90;;;;;;5017925;28;20042;-81
2023/08/14 06:56:58;;;;;;;12.73;8.20;;;18.10;99.90;;;;;;5018203;28;20018;-81
2023/08/14 06:59:23;;;;;;;8.63;7.47;;;18.20;99.90;;;;;;5017704;28;20033;-82
2023/08/14 07:01:49;;;;;;;15.32;9.30;;;18.30;99.90;;;;;;5015691;28;20079;-81
2023/08/14 07:04:15;;;;;;;16.45;9.40;;;18.30;99.90;;;;;;5004191;28;20037;-81
2023/08/14 07:06:41;;;;;;;13.95;8.95;;;18.40;99.90;;;;;;5010345;28;20018;-82
2023/08/14 07:09:07;;;;;;;12.73;8.45;;;18.50;99.90;;;;;;5013407;28;20022;-81
2023/08/14 07:11:38;;;;;;;12.80;8.15;;;18.40;99.90;;;;;;5012590;28;20025;-81
2023/08/14 07:14:04;;;;;;;12.82;7.10;;;18.40;99.90;;;;;;5012324;28;20045;-81
2023/08/14 07:16:30;;;;;;;14.23;7.90;;;18.50;99.90;;;;;;5012493;28;20022;-81
2023/08/14 07:18:55;;;;;;;15.63;8.25;;;18.60;99.90;;;;;;5016801;28;20025;-82
2023/08/14 07:21:21;;;;;;;12.10;7.40;;;18.80;99.90;;;;;;5031959;28;20032;-82
2023/08/14 07:23:47;;;;;;;14.10;7.35;;;18.80;99.90;;;;;;5031482;28;20037;-81
2023/08/14 07:26:12;;;;;;;10.75;7.70;;;19.00;99.90;;;;;;5032079;28;20036;-81
2023/08/14 07:28:40;;;;;;;8.38;6.68;;;19.10;99.90;;;;;;5012702;28;20040;-81
2023/08/14 07:31:09;;;;;;;12.68;6.65;;;19.20;99.90;;;;;;5028918;28;20014;-79
2023/08/14 07:33:35;;;;;;;11.52;5.78;;;19.30;99.90;;;;;;5048477;28;20033;-81
2023/08/14 07:36:03;;;;;;;9.20;6.25;;;19.30;99.90;;;;;;5033084;28;20521;-82
2023/08/14 07:38:29;;;;;;;16.55;6.05;;;19.40;99.90;;;;;;5048264;28;20467;-81
2023/08/14 07:40:55;;;;;;;10.20;6.03;;;19.50;99.90;;;;;;5048528;28;20014;-81
2023/08/14 07:43:24;;;;;;;13.23;5.47;;;19.50;99.90;;;;;;5048484;28;20026;-81
2023/08/14 07:45:50;;;;;;;17.10;5.38;;;19.50;99.90;;;;;;5032748;28;20089;-81
2023/08/14 07:48:16;;;;;;;5.82;5.13;;;19.60;99.90;;;;;;5031979;28;20034;-81
2023/08/14 07:50:42;;;;;;;11.88;5.38;;;19.60;99.90;;;;;;5032540;28;20032;-81
2023/08/14 07:53:10;;;;;;;12.05;4.63;;;19.70;99.90;;;;;;5031125;28;20029;-81
2023/08/14 07:55:36;;;;;;;6.72;3.97;;;19.80;99.90;;;;;;5031477;28;20041;-82
2023/08/14 07:58:02;;;;;;;10.05;4.20;;;19.90;99.90;;;;;;5032614;28;20017;-81
2023/08/14 08:00:28;;;;;;;8.95;4.13;;;19.90;99.90;;;;;;5032591;28;20017;-81
2023/08/14 08:02:54;;;;;;;10.18;4.60;;;20.10;99.90;;;;;;5031487;28;20056;-81
2023/08/14 08:05:20;;;;;;;8.75;3.78;;;20.10;99.90;;;;;;5031844;28;20466;-82
2023/08/14 08:07:45;;;;;;;8.80;4.18;;;20.30;99.90;;;;;;5030676;28;20021;-81
2023/08/14 08:10:11;;;;;;;8.77;3.63;;;20.50;99.90;;;;;;5032304;28;20053;-81
2023/08/14 08:12:37;;;;;;;8.60;4.25;;;20.50;99.90;;;;;;5027303;28;20056;-80
2023/08/14 08:15:03;;;;;;;10.70;4.10;;;20.70;99.90;;;;;;5032053;28;20048;-81
2023/08/14 08:17:29;;;;;;;11.48;3.90;;;20.80;99.90;;;;;;5016221;28;20022;-79
2023/08/14 08:19:55;;;;;;;9.73;3.55;;;20.90;99.90;;;;;;5030250;28;20075;-80
2023/08/14 08:22:20;;;;;;;8.93;3.72;;;20.90;99.90;;;;;;5035896;28;20034;-80
2023/08/14 08:24:47;;;;;;;5.40;3.42;;;21.10;99.90;;;;;;5036893;28;20029;-80
2023/08/14 08:27:13;;;;;;;10.02;3.55;;;21.20;99.90;;;;;;5035478;28;20470;-80
2023/08/14 08:29:38;;;;;;;10.75;3.30;;;21.30;99.90;;;;;;5035298;28;20037;-80
2023/08/14 08:32:04;;;;;;;7.57;3.03;;;21.40;99.90;;;;;;5034705;28;20034;-80
2023/08/14 08:34:30;;;;;;;5.95;2.67;;;21.50;99.90;;;;;;5036436;28;20111;-80
2023/08/14 08:36:56;;;;;;;6.13;2.50;;;21.60;99.90;;;;;;5036642;28;20060;-80
2023/08/14 08:39:22;;;;;;;8.98;3.35;;;21.70;99.90;;;;;;5036521;28;20049;-80
2023/08/14 08:41:49;;;;;;;8.57;2.42;;;21.80;99.90;;;;;;5036449;28;20029;-80
2023/08/14 08:44:44;;;;;;;7.55;2.92;;;21.80;99.90;;;;;;5036516;28;20026;-80
2023/08/14 08:47:13;;;;;;;8.35;2.50;;;21.90;99.90;;;;;;5049965;28;20045;-80
2023/08/14 08:49:40;;;;;;;7.32;2.83;;;22.10;99.90;;;;;;5023741;28;20050;-80
2023/08/14 08:52:07;;;;;;;8.90;2.45;;;22.20;99.90;;;;;;5020889;28;20072;-80
2023/08/14 08:54:33;;;;;;;6.07;2.50;;;22.40;99.90;;;;;;5034892;28;20073;-80
2023/08/14 08:57:00;;;;;;;7.93;2.83;;;22.50;99.90;;;;;;5036281;28;20053;-79
2023/08/14 08:59:26;;;;;;;7.05;2.70;;;22.70;99.90;;;;;;5035603;28;20112;-80
2023/08/14 09:01:52;;;;;;;5.65;2.55;;;22.80;99.90;;;;;;5034987;28;20121;-80
2023/08/14 09:04:18;;;;;;;7.88;3.05;;;22.90;99.90;;;;;;5030998;28;20030;-80
2023/08/14 09:06:44;;;;;;;7.30;3.25;;;23.10;99.90;;;;;;5014702;28;20144;-80
2023/08/14 09:09:12;;;;;;;5.35;2.55;;;23.10;99.90;;;;;;5015060;28;20075;-80
2023/08/14 09:11:38;;;;;;;7.53;2.63;;;23.30;99.90;;;;;;5037239;28;20501;-80
2023/08/14 09:14:04;;;;;;;6.25;2.60;;;23.40;99.90;;;;;;5041213;28;20029;-79
2023/08/14 09:16:30;;;;;;;4.45;2.30;;;23.80;99.90;;;;;;5039333;28;20048;-79
2023/08/14 09:18:58;;;;;;;3.28;2.42;;;23.70;99.90;;;;;;5032007;28;20104;-79
2023/08/14 09:21:27;;;;;;;5.55;2.28;;;23.80;99.90;;;;;;5021154;28;20089;-79
2023/08/14 09:23:53;;;;;;;8.68;2.28;;;23.80;99.90;;;;;;5040569;28;20029;-80
2023/08/14 09:26:20;;;;;;;5.22;2.20;;;24.00;99.90;;;;;;5040136;28;20525;-80
2023/08/14 09:28:47;;;;;;;3.28;1.92;;;24.10;99.90;;;;;;5038907;28;20018;-81
2023/08/14 09:31:14;;;;;;;6.47;1.90;;;24.10;99.90;;;;;;5024788;28;20073;-79
2023/08/14 09:33:41;;;;;;;3.85;2.03;;;24.10;99.90;;;;;;5020114;28;20503;-82
2023/08/14 09:36:08;;;;;;;4.60;1.80;;;24.20;99.90;;;;;;5017976;28;20148;-79
2023/08/14 09:38:34;;;;;;;4.57;1.42;;;24.50;99.90;;;;;;5020150;28;20082;-79
2023/08/14 09:41:01;;;;;;;7.55;1.90;;;24.80;99.90;;;;;;5019088;28;20018;-80
2023/08/14 09:43:31;;;;;;;3.88;1.73;;;24.70;99.90;;;;;;5017745;28;20056;-80
2023/08/14 09:46:00;;;;;;;6.50;2.17;;;24.80;99.90;;;;;;5031867;28;20028;-79
2023/08/14 09:48:48;;;;;;;7.38;1.90;;;25.00;99.90;;;;;;5039403;28;20815;-79
2023/08/14 09:51:18;;;;;;;3.28;1.65;;;25.10;99.90;;;;;;5033994;28;20513;-79
2023/08/14 09:53:46;;;;;;;5.63;2.17;;;25.20;99.90;;;;;;5034557;28;20038;-79
2023/08/14 09:56:13;;;;;;;3.58;1.67;;;25.10;99.90;;;;;;5033555;28;20045;-78
2023/08/14 09:58:40;;;;;;;4.60;1.88;;;25.20;99.90;;;;;;5024957;28;20499;-79
2023/08/14 10:01:06;;;;;;;12.80;1.95;;;25.40;99.90;;;;;;5014792;28;20109;-79
2023/08/14 10:03:34;;;;;;;6.57;1.70;;;25.70;99.90;;;;;;5014239;28;20113;-81
2023/08/14 10:06:04;;;;;;;7.35;2.08;;;25.80;99.90;;;;;;5014041;28;20060;-79
2023/08/14 10:08:34;;;;;;;6.07;1.88;;;25.90;99.90;;;;;;5028331;28;20037;-79
2023/08/14 10:11:05;;;;;;;4.47;2.00;;;25.90;99.90;;;;;;5026881;28;20053;-80
2023/08/14 10:13:37;;;;;;;3.10;1.63;;;25.80;99.90;;;;;;5023281;28;20030;-79
2023/08/14 10:16:07;;;;;;;6.45;1.85;;;26.00;99.90;;;;;;5024667;28;20026;-79
2023/08/14 10:18:38;;;;;;;6.93;2.00;;;26.00;99.90;;;;;;5023380;28;20535;-80
2023/08/14 10:21:09;;;;;;;3.28;1.70;;;26.20;99.90;;;;;;5044432;28;20022;-79
2023/08/14 10:23:36;;;;;;;4.63;1.77;;;26.20;99.90;;;;;;5040569;28;20037;-79
2023/08/14 10:26:03;;;;;;;13.75;2.20;;;25.90;99.90;;;;;;5035250;28;20060;-82
2023/08/14 10:28:39;;;;;;;10.80;1.73;;;26.00;99.90;;;;;;5033051;28;20017;-81
2023/08/14 10:31:10;;;;;;;3.42;1.95;;;26.30;99.90;;;;;;5054722;28;20030;-81
2023/08/14 10:33:41;;;;;;;1.98;1.50;;;26.40;99.90;;;;;;5036321;28;20056;-81
2023/08/14 10:36:22;;;;;;;5.38;1.58;;;26.30;99.90;;;;;;5036605;28;20025;-81
2023/08/14 10:38:50;;;;;;;6.20;1.80;;;26.50;99.90;;;;;;5030396;28;20029;-81
2023/08/14 10:41:17;;;;;;;4.45;2.00;;;26.50;99.90;;;;;;5033906;28;20021;-82
2023/08/14 10:43:49;;;;;;;5.80;2.17;;;26.50;99.90;;;;;;5026685;28;20026;-78
2023/08/14 10:46:15;;;;;;;4.28;1.60;;;26.50;99.90;;;;;;5015203;28;20037;-78
2023/08/14 10:48:43;;;;;;;5.18;1.52;;;26.70;99.90;;;;;;5032598;28;20021;-78
2023/08/14 10:51:10;;;;;;;5.38;1.92;;;26.70;99.90;;;;;;5033802;28;20031;-79
2023/08/14 10:53:37;;;;;;;5.78;2.17;;;26.30;99.90;;;;;;5031982;28;20087;-78
2023/08/14 10:56:06;;;;;;;5.15;1.83;;;26.40;99.90;;;;;;5033564;28;20104;-79
2023/08/14 10:58:32;;;;;;;4.20;1.98;;;26.30;99.90;;;;;;5029210;28;20021;-78
2023/08/14 11:00:59;;;;;;;5.75;1.90;;;26.40;99.90;;;;;;5040080;28;20490;-78
2023/08/14 11:03:30;;;;;;;6.22;2.05;;;26.60;99.90;;;;;;5039866;28;20032;-78
2023/08/14 11:05:58;;;;;;;6.22;1.98;;;26.70;99.90;;;;;;5039415;28;20025;-78
2023/08/14 11:08:29;;;;;;;4.47;1.77;;;26.90;99.90;;;;;;5037193;28;20391;-79
2023/08/14 11:10:58;;;;;;;5.50;2.00;;;27.10;99.90;;;;;;5036550;28;20030;-78
2023/08/14 11:13:28;;;;;;;3.67;1.48;;;27.00;99.90;;;;;;5037097;28;20025;-78
2023/08/14 11:15:56;;;;;;;3.35;1.38;;;26.90;99.90;;;;;;5036523;28;20022;-78
2023/08/14 11:18:24;;;;;;;4.97;1.40;;;26.90;99.90;;;;;;5036312;28;20036;-78
2023/08/14 11:20:53;;;;;;;5.40;1.60;;;26.80;99.90;;;;;;5036736;28;20045;-78
2023/08/14 11:23:19;;;;;;;4.78;1.48;;;27.00;99.90;;;;;;5035778;28;20446;-78
2023/08/14 11:25:44;;;;;;;4.93;1.65;;;27.20;99.90;;;;;;5035262;28;20021;-78
2023/08/14 11:28:10;;;;;;;4.90;1.80;;;27.30;99.90;;;;;;5020749;28;20041;-78
2023/08/14 11:30:36;;;;;;;2.47;1.60;;;27.20;99.90;;;;;;5014551;28;20049;-78
2023/08/14 11:33:07;;;;;;;4.75;2.00;;;27.00;99.90;;;;;;5016799;28;20164;-78
2023/08/14 11:35:33;;;;;;;4.90;1.70;;;27.10;99.90;;;;;;5014117;28;20018;-78
2023/08/14 11:37:59;;;;;;;3.90;1.67;;;27.10;99.90;;;;;;5015277;28;20022;-79
2023/08/14 11:40:25;;;;;;;4.63;1.40;;;27.50;99.90;;;;;;5015204;28;20033;-77
2023/08/14 11:42:51;;;;;;;5.20;1.77;;;27.70;99.90;;;;;;5028813;28;20087;-77
2023/08/14 11:45:19;;;;;;;3.92;1.83;;;27.90;99.90;;;;;;5012061;28;20037;-78
2023/08/14 11:47:47;;;;;;;5.80;2.13;;;27.90;99.90;;;;;;5027284;28;20080;-78
2023/08/14 11:50:14;;;;;;;7.43;2.25;;;27.50;99.90;;;;;;5031452;28;20056;-78
2023/08/14 11:52:42;;;;;;;4.28;1.73;;;27.60;99.90;;;;;;5035735;28;20108;-78
2023/08/14 11:55:15;;;;;;;4.18;1.50;;;27.40;99.90;;;;;;5037810;28;20025;-79
2023/08/14 11:57:43;;;;;;;5.40;1.50;;;27.20;99.90;;;;;;5026655;28;20036;-79
2023/08/14 12:00:12;;;;;;;3.58;1.70;;;27.40;99.90;;;;;;5017296;28;20476;-78
2023/08/14 12:02:38;;;;;;;4.18;1.63;;;27.40;99.90;;;;;;5016770;28;20081;-78
2023/08/14 12:05:05;;;;;;;4.20;1.60;;;27.50;99.90;;;;;;5017560;28;20129;-78
2023/08/14 12:07:32;;;;;;;5.38;1.55;;;27.70;99.90;;;;;;5017066;28;20025;-78
2023/08/14 12:09:58;;;;;;;3.58;1.60;;;27.80;99.90;;;;;;5017200;28;20498;-78
2023/08/14 12:12:29;;;;;;;6.72;1.80;;;27.80;99.90;;;;;;5017913;28;20433;-79
2023/08/14 12:14:55;;;;;;;3.70;1.63;;;27.50;99.90;;;;;;5016168;28;20018;-79
2023/08/14 12:17:20;;;;;;;3.30;1.58;;;27.40;99.90;;;;;;5025945;28;20506;-78
2023/08/14 12:19:57;;;;;;;5.97;1.50;;;27.60;99.90;;;;;;5044755;28;20022;-78
2023/08/14 12:22:24;;;;;;;4.63;1.80;;;27.80;99.90;;;;;;5032672;28;20082;-78
2023/08/14 12:24:52;;;;;;;5.82;1.83;;;27.90;99.90;;;;;;5016511;28;20026;-78
2023/08/14 12:27:19;;;;;;;6.85;1.83;;;27.80;99.90;;;;;;5021756;28;20116;-78
2023/08/14 12:29:46;;;;;;;5.72;2.08;;;27.90;99.90;;;;;;5036163;28;20030;-77
2023/08/14 12:32:11;;;;;;;5.18;2.05;;;28.20;99.90;;;;;;5036196;28;20025;-78
2023/08/14 12:34:38;;;;;;;4.60;1.95;;;28.00;99.90;;;;;;5035191;28;20022;-77
2023/08/14 12:37:05;;;;;;;5.18;2.00;;;28.40;99.90;;;;;;5034747;28;20064;-78
2023/08/14 12:39:31;;;;;;;6.80;1.92;;;28.20;99.90;;;;;;5035710;28;20021;-78
2023/08/14 12:42:00;;;;;;;6.35;2.20;;;28.20;99.90;;;;;;5030842;28;20088;-78